sensor_id;sensor_type;location;lat;lon;timestamp;pressure;altitude;pressure_sealevel;temperature;humidity
55410;BME280;41279;43.546;16.426;2023-02-21T00:00:29;52798.72;;;-146.77;100.00
55410;BME280;41279;43.546;16.426;2023-02-21T00:03:13;52906.84;;;-146.77;100.00
55410;BME280;41279;43.546;16.426;2023-02-21T00:05:57;52826.75;;;-146.77;88.74
55410;BME280;41279;43.546;16.426;2023-02-21T00:08:41;52796.72;;;-146.77;85.84
55410;BME280;41279;43.546;16.426;2023-02-21T00:11:25;52796.72;;;-146.77;83.65
55410;BME280;41279;43.546;16.426;2023-02-21T00:14:09;52790.72;;;-146.77;83.41
55410;BME280;41279;43.546;16.426;2023-02-21T00:16:53;52810.75;;;-146.77;82.62
55410;BME280;41279;43.546;16.426;2023-02-21T00:19:37;52786.72;;;-146.77;83.41
55410;BME280;41279;43.546;16.426;2023-02-21T00:22:21;52770.69;;;-146.77;88.92
55410;BME280;41279;43.546;16.426;2023-02-21T00:25:05;52798.72;;;-146.77;90.42
55410;BME280;41279;43.546;16.426;2023-02-21T00:27:49;52802.72;;;-146.77;99.30
55410;BME280;41279;43.546;16.426;2023-02-21T00:30:33;52838.78;;;-146.77;100.00
55410;BME280;41279;43.546;16.426;2023-02-21T00:33:16;52840.78;;;-146.77;95.39
55410;BME280;41279;43.546;16.426;2023-02-21T00:36:00;52838.78;;;-146.77;88.72
55410;BME280;41279;43.546;16.426;2023-02-21T00:38:44;52810.75;;;-146.77;89.66
55410;BME280;41279;43.546;16.426;2023-02-21T00:41:28;52804.72;;;-146.77;87.44
55410;BME280;41279;43.546;16.426;2023-02-21T00:44:12;52810.75;;;-146.77;88.07
55410;BME280;41279;43.546;16.426;2023-02-21T00:46:56;52810.75;;;-146.77;88.90
55410;BME280;41279;43.546;16.426;2023-02-21T00:49:39;52756.69;;;-146.77;92.04
55410;BME280;41279;43.546;16.426;2023-02-21T00:52:24;52784.72;;;-146.77;100.00
55410;BME280;41279;43.546;16.426;2023-02-21T00:55:07;52802.72;;;-146.77;93.45
55410;BME280;41279;43.546;16.426;2023-02-21T00:57:51;52762.69;;;-146.77;91.78
55410;BME280;41279;43.546;16.426;2023-02-21T01:00:35;52828.75;;;-146.77;87.48
55410;BME280;41279;43.546;16.426;2023-02-21T01:03:19;52844.78;;;-146.77;86.65
55410;BME280;41279;43.546;16.426;2023-02-21T01:06:08;52832.75;;;-146.77;85.97
55410;BME280;41279;43.546;16.426;2023-02-21T01:08:52;52736.66;;;-146.77;87.92
55410;BME280;41279;43.546;16.426;2023-02-21T01:11:36;52728.66;;;-146.77;99.67
55410;BME280;41279;43.546;16.426;2023-02-21T01:14:20;52738.66;;;-146.77;100.00
55410;BME280;41279;43.546;16.426;2023-02-21T01:17:04;52744.66;;;-146.77;98.68
55410;BME280;41279;43.546;16.426;2023-02-21T01:19:48;52828.75;;;-146.77;100.00
55410;BME280;41279;43.546;16.426;2023-02-21T01:22:31;52842.78;;;-146.77;100.00
55410;BME280;41279;43.546;16.426;2023-02-21T01:25:15;52832.75;;;-146.77;99.01
55410;BME280;41279;43.546;16.426;2023-02-21T01:28:00;52818.75;;;-146.77;87.96
55410;BME280;41279;43.546;16.426;2023-02-21T01:30:43;52780.72;;;-146.77;87.61
55410;BME280;41279;43.546;16.426;2023-02-21T01:33:27;52780.72;;;-146.77;88.96
55410;BME280;41279;43.546;16.426;2023-02-21T01:36:11;52788.72;;;-146.77;89.00
55410;BME280;41279;43.546;16.426;2023-02-21T01:38:55;52746.66;;;-146.77;89.76
55410;BME280;41279;43.546;16.426;2023-02-21T01:41:39;52800.72;;;-146.77;88.42
55410;BME280;41279;43.546;16.426;2023-02-21T01:44:34;52782.72;;;-146.77;87.36
55410;BME280;41279;43.546;16.426;2023-02-21T01:47:19;52730.66;;;-146.77;86.05
55410;BME280;41279;43.546;16.426;2023-02-21T01:50:17;52728.66;;;-146.77;90.49
55410;BME280;41279;43.546;16.426;2023-02-21T01:53:09;52746.66;;;-146.77;99.53
55410;BME280;41279;43.546;16.426;2023-02-21T01:55:55;52732.66;;;-146.77;100.00
55410;BME280;41279;43.546;16.426;2023-02-21T01:58:39;52820.75;;;-146.77;100.00
55410;BME280;41279;43.546;16.426;2023-02-21T02:01:48;52770.69;;;-146.77;99.85
55410;BME280;41279;43.546;16.426;2023-02-21T02:04:33;52806.75;;;-146.77;90.18
55410;BME280;41279;43.546;16.426;2023-02-21T02:07:18;52772.69;;;-146.77;85.44
55410;BME280;41279;43.546;16.426;2023-02-21T02:10:03;52784.72;;;-146.77;84.28
55410;BME280;41279;43.546;16.426;2023-02-21T02:16:00;52780.72;;;-146.77;82.55
55410;BME280;41279;43.546;16.426;2023-02-21T02:18:34;52774.69;;;-146.77;82.98
55410;BME280;41279;43.546;16.426;2023-02-21T02:32:50;52760.69;;;-146.77;81.78
55410;BME280;41279;43.546;16.426;2023-02-21T02:35:21;52742.66;;;-146.77;85.09
55410;BME280;41279;43.546;16.426;2023-02-21T02:37:56;52730.66;;;-146.77;88.43
55410;BME280;41279;43.546;16.426;2023-02-21T02:40:32;52738.66;;;-146.77;88.06
55410;BME280;41279;43.546;16.426;2023-02-21T02:43:10;52758.69;;;-146.77;88.44
55410;BME280;41279;43.546;16.426;2023-02-21T02:48:37;52722.66;;;-146.77;83.84
55410;BME280;41279;43.546;16.426;2023-02-21T02:51:12;52754.69;;;-146.77;85.63
55410;BME280;41279;43.546;16.426;2023-02-21T02:53:38;52762.69;;;-146.77;83.73
55410;BME280;41279;43.546;16.426;2023-02-21T02:56:10;52746.66;;;-146.77;84.37
55410;BME280;41279;43.546;16.426;2023-02-21T02:58:40;52730.66;;;-146.77;86.10
55410;BME280;41279;43.546;16.426;2023-02-21T03:09:14;52714.63;;;-146.77;83.46
55410;BME280;41279;43.546;16.426;2023-02-21T03:15:07;52726.66;;;-146.77;83.49
55410;BME280;41279;43.546;16.426;2023-02-21T03:20:34;52718.63;;;-146.77;85.36
55410;BME280;41279;43.546;16.426;2023-02-21T03:23:01;52726.66;;;-146.77;84.74
55410;BME280;41279;43.546;16.426;2023-02-21T03:25:28;52732.66;;;-146.77;84.36
55410;BME280;41279;43.546;16.426;2023-02-21T03:27:54;52670.59;;;-146.77;90.35
55410;BME280;41279;43.546;16.426;2023-02-21T03:30:20;52670.59;;;-146.77;95.62
55410;BME280;41279;43.546;16.426;2023-02-21T03:32:49;52674.59;;;-146.77;93.96
55410;BME280;41279;43.546;16.426;2023-02-21T03:35:17;52706.63;;;-146.77;96.33
55410;BME280;41279;43.546;16.426;2023-02-21T03:37:45;52774.69;;;-146.77;100.00
55410;BME280;41279;43.546;16.426;2023-02-21T03:40:15;52826.75;;;-146.77;100.00
55410;BME280;41279;43.546;16.426;2023-02-21T03:42:41;52846.78;;;-146.77;100.00
55410;BME280;41279;43.546;16.426;2023-02-21T03:45:07;52766.69;;;-146.77;100.00
55410;BME280;41279;43.546;16.426;2023-02-21T03:47:32;52776.69;;;-146.77;100.00
55410;BME280;41279;43.546;16.426;2023-02-21T03:49:58;52676.59;;;-146.77;91.81
55410;BME280;41279;43.546;16.426;2023-02-21T03:52:23;52718.63;;;-146.77;93.07
55410;BME280;41279;43.546;16.426;2023-02-21T03:54:49;52730.66;;;-146.77;89.70
55410;BME280;41279;43.546;16.426;2023-02-21T03:57:14;52706.63;;;-146.77;100.00
55410;BME280;41279;43.546;16.426;2023-02-21T03:59:40;52744.66;;;-146.77;92.29
55410;BME280;41279;43.546;16.426;2023-02-21T04:02:05;52692.63;;;-146.77;96.84
55410;BME280;41279;43.546;16.426;2023-02-21T04:04:30;52726.66;;;-146.77;93.40
55410;BME280;41279;43.546;16.426;2023-02-21T04:06:56;52734.66;;;-146.77;88.23
55410;BME280;41279;43.546;16.426;2023-02-21T04:09:21;52760.69;;;-146.77;84.98
55410;BME280;41279;43.546;16.426;2023-02-21T04:11:47;52742.66;;;-146.77;84.42
55410;BME280;41279;43.546;16.426;2023-02-21T04:14:13;52736.66;;;-146.77;86.13
55410;BME280;41279;43.546;16.426;2023-02-21T04:16:45;52702.63;;;-146.77;87.74
55410;BME280;41279;43.546;16.426;2023-02-21T04:19:10;52680.59;;;-146.77;88.95
55410;BME280;41279;43.546;16.426;2023-02-21T04:21:36;52698.63;;;-146.77;89.67
55410;BME280;41279;43.546;16.426;2023-02-21T04:24:02;52718.63;;;-146.77;85.23
55410;BME280;41279;43.546;16.426;2023-02-21T04:26:27;52742.66;;;-146.77;86.46
55410;BME280;41279;43.546;16.426;2023-02-21T04:28:54;52686.59;;;-146.77;88.01
55410;BME280;41279;43.546;16.426;2023-02-21T04:31:21;52708.63;;;-146.77;100.00
55410;BME280;41279;43.546;16.426;2023-02-21T04:33:47;52708.63;;;-146.77;92.37
55410;BME280;41279;43.546;16.426;2023-02-21T04:36:13;52712.63;;;-146.77;94.91
55410;BME280;41279;43.546;16.426;2023-02-21T04:38:38;52774.69;;;-146.77;91.79
55410;BME280;41279;43.546;16.426;2023-02-21T04:41:04;52678.59;;;-146.77;93.82
55410;BME280;41279;43.546;16.426;2023-02-21T04:43:30;52752.69;;;-146.77;100.00
55410;BME280;41279;43.546;16.426;2023-02-21T04:45:55;52752.69;;;-146.77;100.00
55410;BME280;41279;43.546;16.426;2023-02-21T04:48:21;52752.69;;;-146.77;100.00
55410;BME280;41279;43.546;16.426;2023-02-21T04:50:46;52728.66;;;-146.77;92.30
55410;BME280;41279;43.546;16.426;2023-02-21T04:53:12;52686.59;;;-146.77;92.83
55410;BME280;41279;43.546;16.426;2023-02-21T04:55:43;52656.56;;;-146.77;97.08
55410;BME280;41279;43.546;16.426;2023-02-21T04:58:09;52698.63;;;-146.77;100.00
55410;BME280;41279;43.546;16.426;2023-02-21T05:00:34;52772.69;;;-146.77;100.00
55410;BME280;41279;43.546;16.426;2023-02-21T05:03:00;52720.66;;;-146.77;95.75
55410;BME280;41279;43.546;16.426;2023-02-21T05:05:25;52716.63;;;-146.77;93.27
55410;BME280;41279;43.546;16.426;2023-02-21T05:07:51;52740.66;;;-146.77;93.24
55410;BME280;41279;43.546;16.426;2023-02-21T05:10:17;52730.66;;;-146.77;87.76
55410;BME280;41279;43.546;16.426;2023-02-21T05:12:43;52718.63;;;-146.77;88.60
55410;BME280;41279;43.546;16.426;2023-02-21T05:15:09;52662.56;;;-146.77;96.88
55410;BME280;41279;43.546;16.426;2023-02-21T05:17:35;52714.63;;;-146.77;91.84
55410;BME280;41279;43.546;16.426;2023-02-21T05:20:01;52704.63;;;-146.77;91.18
55410;BME280;41279;43.546;16.426;2023-02-21T05:22:26;52682.59;;;-146.77;98.93
55410;BME280;41279;43.546;16.426;2023-02-21T05:24:52;52762.69;;;-146.77;100.00
55410;BME280;41279;43.546;16.426;2023-02-21T05:27:19;52744.66;;;-146.77;98.00
55410;BME280;41279;43.546;16.426;2023-02-21T05:29:49;52722.66;;;-146.77;92.32
55410;BME280;41279;43.546;16.426;2023-02-21T05:32:16;52728.66;;;-146.77;91.20
55410;BME280;41279;43.546;16.426;2023-02-21T05:34:42;52784.72;;;-146.77;87.02
55410;BME280;41279;43.546;16.426;2023-02-21T05:37:15;52652.56;;;-146.77;91.76
55410;BME280;41279;43.546;16.426;2023-02-21T05:39:41;52704.63;;;-146.77;92.07
55410;BME280;41279;43.546;16.426;2023-02-21T05:42:07;52724.66;;;-146.77;89.37
55410;BME280;41279;43.546;16.426;2023-02-21T05:44:33;52732.66;;;-146.77;85.62
55410;BME280;41279;43.546;16.426;2023-02-21T05:46:59;52736.66;;;-146.77;86.58
55410;BME280;41279;43.546;16.426;2023-02-21T05:49:26;52716.63;;;-146.77;86.77
55410;BME280;41279;43.546;16.426;2023-02-21T05:51:52;52710.63;;;-146.77;86.02
55410;BME280;41279;43.546;16.426;2023-02-21T05:54:18;52680.59;;;-146.77;90.84
55410;BME280;41279;43.546;16.426;2023-02-21T05:56:46;52660.56;;;-146.77;91.38
55410;BME280;41279;43.546;16.426;2023-02-21T05:59:13;52656.56;;;-146.77;100.00
55410;BME280;41279;43.546;16.426;2023-02-21T06:01:38;52678.59;;;-146.77;100.00
55410;BME280;41279;43.546;16.426;2023-02-21T06:04:04;52690.59;;;-146.77;100.00
55410;BME280;41279;43.546;16.426;2023-02-21T06:06:35;52762.69;;;-146.77;100.00
55410;BME280;41279;43.546;16.426;2023-02-21T06:09:01;52658.56;;;-146.77;97.00
55410;BME280;41279;43.546;16.426;2023-02-21T06:11:29;52658.56;;;-146.77;100.00
55410;BME280;41279;43.546;16.426;2023-02-21T06:13:57;52670.59;;;-146.77;99.31
55410;BME280;41279;43.546;16.426;2023-02-21T06:16:24;52724.66;;;-146.77;92.74
55410;BME280;41279;43.546;16.426;2023-02-21T06:18:54;52662.56;;;-146.77;93.82
55410;BME280;41279;43.546;16.426;2023-02-21T06:21:19;52746.66;;;-146.77;92.00
55410;BME280;41279;43.546;16.426;2023-02-21T06:23:45;52718.63;;;-146.77;91.38
55410;BME280;41279;43.546;16.426;2023-02-21T06:26:11;52720.66;;;-146.77;90.93
55410;BME280;41279;43.546;16.426;2023-02-21T06:28:37;52770.69;;;-146.77;90.73
55410;BME280;41279;43.546;16.426;2023-02-21T06:31:03;52770.69;;;-146.77;89.54
55410;BME280;41279;43.546;16.426;2023-02-21T06:33:29;52848.78;;;-146.77;83.47
55410;BME280;41279;43.546;16.426;2023-02-21T06:35:55;52758.69;;;-146.77;82.65
55410;BME280;41279;43.546;16.426;2023-02-21T06:38:20;52818.75;;;-146.77;79.52
55410;BME280;41279;43.546;16.426;2023-02-21T06:40:46;52760.69;;;-146.77;77.24
55410;BME280;41279;43.546;16.426;2023-02-21T06:43:11;52720.66;;;-146.77;79.57
55410;BME280;41279;43.546;16.426;2023-02-21T06:45:37;52712.63;;;-146.77;80.06
55410;BME280;41279;43.546;16.426;2023-02-21T06:48:02;52764.69;;;-146.77;77.38
55410;BME280;41279;43.546;16.426;2023-02-21T06:50:28;52788.72;;;-146.77;74.34
55410;BME280;41279;43.546;16.426;2023-02-21T06:52:53;52816.75;;;-146.77;72.36
55410;BME280;41279;43.546;16.426;2023-02-21T06:55:20;52812.75;;;-146.77;71.99
55410;BME280;41279;43.546;16.426;2023-02-21T06:57:46;52808.75;;;-146.77;69.74
55410;BME280;41279;43.546;16.426;2023-02-21T07:00:12;52798.72;;;-146.77;68.56
55410;BME280;41279;43.546;16.426;2023-02-21T07:02:37;52802.72;;;-146.77;67.70
55410;BME280;41279;43.546;16.426;2023-02-21T07:05:04;52852.78;;;-146.77;67.39
55410;BME280;41279;43.546;16.426;2023-02-21T07:07:30;52810.75;;;-146.77;67.09
55410;BME280;41279;43.546;16.426;2023-02-21T07:09:55;52820.75;;;-146.77;65.01
55410;BME280;41279;43.546;16.426;2023-02-21T07:12:20;52782.72;;;-146.77;69.01
55410;BME280;41279;43.546;16.426;2023-02-21T07:14:46;52794.72;;;-146.77;67.78
55410;BME280;41279;43.546;16.426;2023-02-21T07:17:11;52838.78;;;-146.77;66.58
55410;BME280;41279;43.546;16.426;2023-02-21T07:19:37;52824.75;;;-146.77;66.17
55410;BME280;41279;43.546;16.426;2023-02-21T07:22:02;52752.69;;;-146.77;66.79
55410;BME280;41279;43.546;16.426;2023-02-21T07:24:27;52790.72;;;-146.77;67.56
55410;BME280;41279;43.546;16.426;2023-02-21T07:26:53;52716.63;;;-146.77;69.32
55410;BME280;41279;43.546;16.426;2023-02-21T07:29:19;52724.66;;;-146.77;70.42
55410;BME280;41279;43.546;16.426;2023-02-21T07:31:44;52706.63;;;-146.77;66.19
55410;BME280;41279;43.546;16.426;2023-02-21T07:34:10;52750.69;;;-146.77;63.89
55410;BME280;41279;43.546;16.426;2023-02-21T07:36:37;52758.69;;;-146.77;63.49
55410;BME280;41279;43.546;16.426;2023-02-21T07:39:02;52750.69;;;-146.77;61.50
55410;BME280;41279;43.546;16.426;2023-02-21T07:41:28;52758.69;;;-146.77;60.95
55410;BME280;41279;43.546;16.426;2023-02-21T07:43:54;52742.66;;;-146.77;59.47
55410;BME280;41279;43.546;16.426;2023-02-21T07:46:19;52762.69;;;-146.77;60.02
55410;BME280;41279;43.546;16.426;2023-02-21T07:48:44;52718.63;;;-146.77;59.55
55410;BME280;41279;43.546;16.426;2023-02-21T07:51:10;52684.59;;;-146.77;60.60
55410;BME280;41279;43.546;16.426;2023-02-21T07:53:36;52658.56;;;-146.77;64.53
55410;BME280;41279;43.546;16.426;2023-02-21T07:56:03;52730.66;;;-146.77;61.34
55410;BME280;41279;43.546;16.426;2023-02-21T07:58:28;52770.69;;;-146.77;60.54
55410;BME280;41279;43.546;16.426;2023-02-21T08:00:56;52754.69;;;-146.77;61.33
55410;BME280;41279;43.546;16.426;2023-02-21T08:03:22;52726.66;;;-146.77;61.18
55410;BME280;41279;43.546;16.426;2023-02-21T08:05:47;52752.69;;;-146.77;60.06
55410;BME280;41279;43.546;16.426;2023-02-21T08:08:14;52734.66;;;-146.77;60.48
55410;BME280;41279;43.546;16.426;2023-02-21T08:10:40;52736.66;;;-146.77;60.42
55410;BME280;41279;43.546;16.426;2023-02-21T08:13:05;52756.69;;;-146.77;60.09
55410;BME280;41279;43.546;16.426;2023-02-21T08:15:31;52774.69;;;-146.77;59.93
55410;BME280;41279;43.546;16.426;2023-02-21T08:17:56;52698.63;;;-146.77;59.31
55410;BME280;41279;43.546;16.426;2023-02-21T08:20:22;52740.66;;;-146.77;58.25
55410;BME280;41279;43.546;16.426;2023-02-21T08:22:47;52754.69;;;-146.77;59.14
55410;BME280;41279;43.546;16.426;2023-02-21T08:25:14;52722.66;;;-146.77;58.28
55410;BME280;41279;43.546;16.426;2023-02-21T08:27:41;52738.66;;;-146.77;56.98
55410;BME280;41279;43.546;16.426;2023-02-21T08:30:09;52736.66;;;-146.77;58.53
55410;BME280;41279;43.546;16.426;2023-02-21T08:32:35;52762.69;;;-146.77;56.99
55410;BME280;41279;43.546;16.426;2023-02-21T08:35:00;52692.63;;;-146.77;56.82
55410;BME280;41279;43.546;16.426;2023-02-21T08:37:28;52690.59;;;-146.77;58.87
55410;BME280;41279;43.546;16.426;2023-02-21T08:39:58;52698.63;;;-146.77;57.67
55410;BME280;41279;43.546;16.426;2023-02-21T08:42:24;52708.63;;;-146.77;59.58
55410;BME280;41279;43.546;16.426;2023-02-21T08:44:49;52738.66;;;-146.77;59.09
55410;BME280;41279;43.546;16.426;2023-02-21T08:47:15;52704.63;;;-146.77;59.06
55410;BME280;41279;43.546;16.426;2023-02-21T08:49:45;52766.69;;;-146.77;58.72
55410;BME280;41279;43.546;16.426;2023-02-21T08:52:13;52748.66;;;-146.77;58.11
55410;BME280;41279;43.546;16.426;2023-02-21T08:54:40;52762.69;;;-146.77;57.46
55410;BME280;41279;43.546;16.426;2023-02-21T08:57:06;52748.66;;;-146.77;56.30
55410;BME280;41279;43.546;16.426;2023-02-21T08:59:31;52722.66;;;-146.77;56.92
55410;BME280;41279;43.546;16.426;2023-02-21T09:01:59;52688.59;;;-146.77;59.65
55410;BME280;41279;43.546;16.426;2023-02-21T09:04:26;52714.63;;;-146.77;60.68
55410;BME280;41279;43.546;16.426;2023-02-21T09:06:55;52740.66;;;-146.77;60.21
55410;BME280;41279;43.546;16.426;2023-02-21T09:09:21;52754.69;;;-146.77;60.49
55410;BME280;41279;43.546;16.426;2023-02-21T09:11:47;52740.66;;;-146.77;59.94
55410;BME280;41279;43.546;16.426;2023-02-21T09:14:14;52708.63;;;-146.77;60.15
55410;BME280;41279;43.546;16.426;2023-02-21T09:16:40;52740.66;;;-146.77;60.63
55410;BME280;41279;43.546;16.426;2023-02-21T09:19:07;52730.66;;;-146.77;59.73
55410;BME280;41279;43.546;16.426;2023-02-21T09:21:33;52694.63;;;-146.77;60.23
55410;BME280;41279;43.546;16.426;2023-02-21T09:23:59;52662.56;;;-146.77;62.68
55410;BME280;41279;43.546;16.426;2023-02-21T09:26:27;52722.66;;;-146.77;67.29
55410;BME280;41279;43.546;16.426;2023-02-21T09:28:57;52746.66;;;-146.77;67.42
55410;BME280;41279;43.546;16.426;2023-02-21T09:31:22;52742.66;;;-146.77;68.35
55410;BME280;41279;43.546;16.426;2023-02-21T09:33:48;52724.66;;;-146.77;69.08
55410;BME280;41279;43.546;16.426;2023-02-21T09:36:13;52756.69;;;-146.77;69.68
55410;BME280;41279;43.546;16.426;2023-02-21T09:38:39;52728.66;;;-146.77;68.18
55410;BME280;41279;43.546;16.426;2023-02-21T09:41:10;52728.66;;;-146.77;70.42
55410;BME280;41279;43.546;16.426;2023-02-21T09:43:44;52748.66;;;-146.77;69.93
55410;BME280;41279;43.546;16.426;2023-02-21T09:49:10;52720.66;;;-146.77;69.96
55410;BME280;41279;43.546;16.426;2023-02-21T09:51:39;52748.66;;;-146.77;72.25
55410;BME280;41279;43.546;16.426;2023-02-21T09:54:12;52784.72;;;-146.77;72.38
55410;BME280;41279;43.546;16.426;2023-02-21T09:56:41;52782.72;;;-146.77;74.25
55410;BME280;41279;43.546;16.426;2023-02-21T09:59:11;52800.72;;;-146.77;73.18
55410;BME280;41279;43.546;16.426;2023-02-21T10:04:54;52714.63;;;-146.77;70.92
55410;BME280;41279;43.546;16.426;2023-02-21T10:07:48;52702.63;;;-146.77;69.15
55410;BME280;41279;43.546;16.426;2023-02-21T10:10:30;52780.72;;;-146.77;67.40
55410;BME280;41279;43.546;16.426;2023-02-21T10:18:27;52790.72;;;-146.77;69.79
55410;BME280;41279;43.546;16.426;2023-02-21T10:20:58;52818.75;;;-146.77;71.46
55410;BME280;41279;43.546;16.426;2023-02-21T10:23:36;52792.72;;;-146.77;73.31
55410;BME280;41279;43.546;16.426;2023-02-21T10:26:06;52834.78;;;-146.77;74.73
55410;BME280;41279;43.546;16.426;2023-02-21T10:28:34;52848.78;;;-146.77;72.68
55410;BME280;41279;43.546;16.426;2023-02-21T10:31:06;52856.78;;;-146.77;73.58
55410;BME280;41279;43.546;16.426;2023-02-21T10:33:36;52880.81;;;-146.77;72.84
55410;BME280;41279;43.546;16.426;2023-02-21T10:36:10;52862.81;;;-146.77;72.38
55410;BME280;41279;43.546;16.426;2023-02-21T10:38:36;52886.81;;;-146.77;71.76
55410;BME280;41279;43.546;16.426;2023-02-21T10:41:04;52894.84;;;-146.77;70.03
55410;BME280;41279;43.546;16.426;2023-02-21T10:43:35;52896.84;;;-146.77;70.68
55410;BME280;41279;43.546;16.426;2023-02-21T10:48:43;52886.81;;;-146.77;70.06
55410;BME280;41279;43.546;16.426;2023-02-21T10:51:33;52858.78;;;-146.77;71.87
55410;BME280;41279;43.546;16.426;2023-02-21T10:54:17;52882.81;;;-146.77;71.60
55410;BME280;41279;43.546;16.426;2023-02-21T10:56:47;52932.88;;;-146.77;72.56
55410;BME280;41279;43.546;16.426;2023-02-21T10:59:21;52908.84;;;-146.77;71.18
55410;BME280;41279;43.546;16.426;2023-02-21T11:01:49;52942.88;;;-146.77;73.19
55410;BME280;41279;43.546;16.426;2023-02-21T11:06:47;52936.88;;;-146.77;68.51
55410;BME280;41279;43.546;16.426;2023-02-21T11:17:21;52872.81;;;-146.77;67.31
55410;BME280;41279;43.546;16.426;2023-02-21T11:19:50;52944.91;;;-146.77;66.39
55410;BME280;41279;43.546;16.426;2023-02-21T11:22:22;52968.91;;;-146.77;67.90
55410;BME280;41279;43.546;16.426;2023-02-21T11:24:56;52928.88;;;-146.77;67.75
55410;BME280;41279;43.546;16.426;2023-02-21T11:27:23;52976.94;;;-146.77;66.80
55410;BME280;41279;43.546;16.426;2023-02-21T11:29:50;52968.91;;;-146.77;66.04
55410;BME280;41279;43.546;16.426;2023-02-21T11:32:36;52910.84;;;-146.77;64.70
55410;BME280;41279;43.546;16.426;2023-02-21T11:35:03;52858.78;;;-146.77;65.42
55410;BME280;41279;43.546;16.426;2023-02-21T11:37:30;52882.81;;;-146.77;66.37
55410;BME280;41279;43.546;16.426;2023-02-21T11:39:56;52838.78;;;-146.77;66.83
55410;BME280;41279;43.546;16.426;2023-02-21T11:42:31;52794.72;;;-146.77;67.15
55410;BME280;41279;43.546;16.426;2023-02-21T11:45:11;52852.78;;;-146.77;65.96
55410;BME280;41279;43.546;16.426;2023-02-21T11:47:44;52810.75;;;-146.77;67.01
55410;BME280;41279;43.546;16.426;2023-02-21T11:50:21;52834.78;;;-146.77;66.13
55410;BME280;41279;43.546;16.426;2023-02-21T11:55:24;52908.84;;;-146.77;64.92
55410;BME280;41279;43.546;16.426;2023-02-21T11:58:04;52874.81;;;-146.77;63.67
55410;BME280;41279;43.546;16.426;2023-02-21T12:00:54;52890.84;;;-146.77;62.49
55410;BME280;41279;43.546;16.426;2023-02-21T12:09:00;52840.78;;;-146.77;62.51
55410;BME280;41279;43.546;16.426;2023-02-21T12:23:07;52914.84;;;-146.77;63.99
55410;BME280;41279;43.546;16.426;2023-02-21T12:25:45;52950.91;;;-146.77;63.01
55410;BME280;41279;43.546;16.426;2023-02-21T12:36:29;52950.91;;;-146.77;61.64
55410;BME280;41279;43.546;16.426;2023-02-21T12:39:02;52938.88;;;-146.77;62.77
55410;BME280;41279;43.546;16.426;2023-02-21T12:44:19;52862.81;;;-146.77;64.09
55410;BME280;41279;43.546;16.426;2023-02-21T12:47:07;52896.84;;;-146.77;63.10
55410;BME280;41279;43.546;16.426;2023-02-21T12:49:54;52862.81;;;-146.77;62.02
55410;BME280;41279;43.546;16.426;2023-02-21T12:52:35;52900.84;;;-146.77;59.92
55410;BME280;41279;43.546;16.426;2023-02-21T12:55:13;52862.81;;;-146.77;59.98
55410;BME280;41279;43.546;16.426;2023-02-21T12:57:53;52862.81;;;-146.77;58.36
55410;BME280;41279;43.546;16.426;2023-02-21T13:00:26;52878.81;;;-146.77;58.22
55410;BME280;41279;43.546;16.426;2023-02-21T13:03:00;52900.84;;;-146.77;58.90
55410;BME280;41279;43.546;16.426;2023-02-21T13:05:45;52982.94;;;-146.77;59.38
55410;BME280;41279;43.546;16.426;2023-02-21T13:08:22;52988.94;;;-146.77;59.91
55410;BME280;41279;43.546;16.426;2023-02-21T13:11:18;53077.03;;;-146.77;62.97
55410;BME280;41279;43.546;16.426;2023-02-21T13:13:46;53041.00;;;-146.77;64.96
55410;BME280;41279;43.546;16.426;2023-02-21T13:16:12;53071.03;;;-146.77;63.95
55410;BME280;41279;43.546;16.426;2023-02-21T13:18:46;53018.97;;;-146.77;64.22
55410;BME280;41279;43.546;16.426;2023-02-21T13:29:42;52974.94;;;-146.77;62.61
55410;BME280;41279;43.546;16.426;2023-02-21T13:32:12;53031.00;;;-146.77;63.96
55410;BME280;41279;43.546;16.426;2023-02-21T13:34:41;53067.03;;;-146.77;63.24
55410;BME280;41279;43.546;16.426;2023-02-21T13:37:14;53067.03;;;-146.77;63.06
55410;BME280;41279;43.546;16.426;2023-02-21T13:39:44;53083.06;;;-146.77;62.65
55410;BME280;41279;43.546;16.426;2023-02-21T13:42:31;53113.09;;;-146.77;63.23
55410;BME280;41279;43.546;16.426;2023-02-21T13:45:23;53141.13;;;-146.77;64.29
55410;BME280;41279;43.546;16.426;2023-02-21T13:53:22;53143.13;;;-146.77;65.50
55410;BME280;41279;43.546;16.426;2023-02-21T13:56:12;53191.19;;;-146.77;65.33
55410;BME280;41279;43.546;16.426;2023-02-21T13:58:43;53139.13;;;-146.77;63.94
55410;BME280;41279;43.546;16.426;2023-02-21T14:01:19;53129.09;;;-146.77;63.90
55410;BME280;41279;43.546;16.426;2023-02-21T14:03:52;53131.13;;;-146.77;64.63
55410;BME280;41279;43.546;16.426;2023-02-21T14:08:47;53097.06;;;-146.77;64.26
55410;BME280;41279;43.546;16.426;2023-02-21T14:11:21;53131.13;;;-146.77;65.24
55410;BME280;41279;43.546;16.426;2023-02-21T14:16:27;53123.09;;;-146.77;65.86
55410;BME280;41279;43.546;16.426;2023-02-21T14:21:46;53217.22;;;-146.77;68.51
55410;BME280;41279;43.546;16.426;2023-02-21T14:24:16;53255.25;;;-146.77;67.39
55410;BME280;41279;43.546;16.426;2023-02-21T14:26:54;53263.28;;;-146.77;68.28
55410;BME280;41279;43.546;16.426;2023-02-21T14:37:21;53237.25;;;-146.77;69.32
55410;BME280;41279;43.546;16.426;2023-02-21T14:43:05;53255.25;;;-146.77;69.01
55410;BME280;41279;43.546;16.426;2023-02-21T14:51:18;53287.31;;;-146.77;71.47
55410;BME280;41279;43.546;16.426;2023-02-21T15:09:40;53339.38;;;-146.77;76.30
55410;BME280;41279;43.546;16.426;2023-02-21T15:12:12;53359.41;;;-146.77;77.81